Time;durP1;ratioP1;P1;durP2;ratioP2;P2;SDS_P1;SDS_P2;PMS_P1;PMS_P2;Temp;Humidity;BMP_temperature;BMP_pressure;BME280_temperature;BME280_humidity;BME280_pressure;Samples;Min_cycle;Max_cycle;Signal;HPM_P1;HPM_P2
2021/07/09 00:01:45;;;;;;;1.33;0.80;;;18.60;81.20;;;;;;4954993;29;20034;-70
2021/07/09 00:04:11;;;;;;;1.48;0.77;;;18.60;81.40;;;;;;4954719;29;20032;-71
2021/07/09 00:06:37;;;;;;;0.63;0.60;;;18.60;81.30;;;;;;4954676;29;20030;-70
2021/07/09 00:09:04;;;;;;;1.95;0.60;;;18.50;81.40;;;;;;4954456;29;20031;-70
2021/07/09 00:11:31;;;;;;;2.95;0.55;;;18.50;81.60;;;;;;4954502;28;20640;-69
2021/07/09 00:13:56;;;;;;;0.85;0.70;;;18.50;81.70;;;;;;4954294;29;20464;-70
2021/07/09 00:16:22;;;;;;;1.50;0.70;;;18.50;81.80;;;;;;4954517;29;20037;-69
2021/07/09 00:18:48;;;;;;;0.82;0.70;;;18.40;82.10;;;;;;4954206;29;20431;-69
2021/07/09 00:21:15;;;;;;;0.55;0.55;;;18.40;82.30;;;;;;4954413;28;20028;-69
2021/07/09 00:23:42;;;;;;;0.65;0.65;;;18.30;82.60;;;;;;4954185;28;20479;-69
2021/07/09 00:26:08;;;;;;;0.70;0.70;;;18.20;82.90;;;;;;4954211;28;20031;-70
2021/07/09 00:28:34;;;;;;;4.35;0.77;;;18.20;83.20;;;;;;4954008;28;20035;-70
2021/07/09 00:31:00;;;;;;;1.33;0.70;;;18.10;83.30;;;;;;4953774;28;20093;-70
2021/07/09 00:33:27;;;;;;;0.68;0.40;;;18.10;83.60;;;;;;4953991;28;20484;-70
2021/07/09 00:35:52;;;;;;;1.92;0.70;;;18.10;83.90;;;;;;4954101;28;20034;-70
2021/07/09 00:38:18;;;;;;;1.48;0.65;;;18.10;84.30;;;;;;4954097;29;20019;-70
2021/07/09 00:40:44;;;;;;;1.52;0.70;;;18.00;84.50;;;;;;4954265;29;20510;-70
2021/07/09 00:43:09;;;;;;;1.35;0.70;;;18.00;84.80;;;;;;4954150;29;20034;-71
2021/07/09 00:45:35;;;;;;;0.90;0.65;;;17.90;85.10;;;;;;4953994;28;20506;-71
2021/07/09 00:48:01;;;;;;;1.63;0.80;;;17.80;85.40;;;;;;4953922;29;20030;-71
2021/07/09 00:50:27;;;;;;;6.53;0.77;;;17.80;85.70;;;;;;4953879;28;20094;-71
2021/07/09 00:52:53;;;;;;;1.42;0.85;;;17.80;85.80;;;;;;4953561;28;20523;-71
2021/07/09 00:55:19;;;;;;;1.48;0.70;;;17.80;86.10;;;;;;4953721;29;20106;-71
2021/07/09 00:57:50;;;;;;;3.60;0.70;;;17.80;86.30;;;;;;4954108;28;20105;-71
2021/07/09 01:00:17;;;;;;;1.63;1.05;;;17.80;86.30;;;;;;4954147;28;20487;-71
2021/07/09 01:02:45;;;;;;;0.80;0.80;;;17.70;86.60;;;;;;4953748;28;20034;-71
2021/07/09 01:05:13;;;;;;;0.80;0.63;;;17.70;86.80;;;;;;4954113;28;20035;-71
2021/07/09 01:07:39;;;;;;;0.60;0.60;;;17.60;87.10;;;;;;4953583;28;20028;-71
2021/07/09 01:10:13;;;;;;;2.85;0.70;;;17.60;87.40;;;;;;4953584;29;20035;-71
2021/07/09 01:12:39;;;;;;;1.02;0.60;;;17.50;87.60;;;;;;4953867;28;20039;-71
2021/07/09 01:15:07;;;;;;;1.10;0.77;;;17.40;88.10;;;;;;4953692;28;20027;-71
2021/07/09 01:53:38;;;;;;;3.30;0.88;;;16.90;91.50;;;;;;5159994;23;20542;-70
2021/07/09 01:56:04;;;;;;;2.22;1.10;;;16.90;91.80;;;;;;4995960;28;20046;-70
2021/07/09 01:58:30;;;;;;;0.93;0.90;;;16.90;92.00;;;;;;4995727;28;20030;-70
2021/07/09 02:00:56;;;;;;;1.27;0.90;;;16.90;92.10;;;;;;4995512;28;20493;-69
2021/07/09 02:03:22;;;;;;;0.57;0.57;;;16.90;92.40;;;;;;4995261;28;20073;-70
2021/07/09 02:05:48;;;;;;;1.10;1.00;;;16.90;92.50;;;;;;4995554;28;20105;-69
2021/07/09 02:08:13;;;;;;;1.40;0.90;;;16.90;92.70;;;;;;4995472;28;20514;-71
2021/07/09 02:10:42;;;;;;;1.23;0.88;;;16.80;92.80;;;;;;4995551;28;20058;-71
2021/07/09 02:13:10;;;;;;;1.33;0.90;;;16.90;93.00;;;;;;4995229;28;20027;-71
2021/07/09 02:15:47;;;;;;;1.85;0.90;;;16.80;93.20;;;;;;4995620;28;20108;-70
2021/07/09 02:18:15;;;;;;;0.93;0.82;;;16.80;93.50;;;;;;4995345;28;20022;-70
2021/07/09 02:20:42;;;;;;;1.83;0.80;;;16.70;93.70;;;;;;4995552;28;20039;-68
2021/07/09 02:23:13;;;;;;;1.90;0.80;;;16.70;93.90;;;;;;4995039;28;20031;-70
2021/07/09 02:25:39;;;;;;;2.10;0.90;;;16.70;94.20;;;;;;4995210;28;20436;-70
2021/07/09 02:28:06;;;;;;;1.08;0.90;;;16.70;94.50;;;;;;4995033;28;20026;-70
2021/07/09 02:30:33;;;;;;;1.58;0.90;;;16.70;94.70;;;;;;4995051;28;20065;-70
2021/07/09 02:32:59;;;;;;;0.70;0.70;;;16.70;94.90;;;;;;4994887;28;20485;-70
2021/07/09 02:35:27;;;;;;;1.58;1.00;;;16.70;95.10;;;;;;4994817;28;20117;-70
2021/07/09 02:37:54;;;;;;;4.55;0.90;;;16.70;95.40;;;;;;4995235;28;20034;-70
2021/07/09 02:40:24;;;;;;;1.67;1.00;;;16.70;95.70;;;;;;4994851;28;20061;-69
2021/07/09 02:42:53;;;;;;;2.47;1.20;;;16.70;95.90;;;;;;4995139;28;20080;-70
2021/07/09 02:45:20;;;;;;;1.10;0.80;;;16.70;96.10;;;;;;4995047;28;20105;-70
2021/07/09 02:47:47;;;;;;;1.33;0.90;;;16.70;96.30;;;;;;4994741;28;20049;-70
2021/07/09 02:50:16;;;;;;;1.40;0.90;;;16.70;96.60;;;;;;4994565;28;20084;-70
2021/07/09 02:52:42;;;;;;;0.70;0.70;;;16.80;97.00;;;;;;4994567;28;20130;-70
2021/07/09 02:55:09;;;;;;;1.40;0.80;;;17.00;96.50;;;;;;4994403;28;20117;-70
2021/07/09 02:57:36;;;;;;;0.70;0.70;;;17.20;96.20;;;;;;4994285;28;20417;-70
2021/07/09 03:00:07;;;;;;;0.95;0.90;;;17.20;95.90;;;;;;4994428;28;20387;-70
2021/07/09 03:02:33;;;;;;;1.13;0.80;;;17.30;95.90;;;;;;4994265;28;20033;-70
2021/07/09 03:04:59;;;;;;;1.50;0.80;;;17.30;95.80;;;;;;4994381;28;20117;-70
2021/07/09 03:07:25;;;;;;;0.60;0.60;;;17.40;95.80;;;;;;4994510;28;20035;-70
2021/07/09 03:09:51;;;;;;;1.33;0.73;;;17.40;95.70;;;;;;4994182;28;20077;-70
2021/07/09 03:12:16;;;;;;;0.70;0.70;;;17.40;95.70;;;;;;4994354;28;20034;-70
2021/07/09 03:14:42;;;;;;;0.90;0.80;;;17.50;95.60;;;;;;4994170;28;20482;-70
2021/07/09 03:17:08;;;;;;;1.13;0.82;;;17.60;95.50;;;;;;4994173;28;20030;-70
2021/07/09 03:19:34;;;;;;;1.50;0.63;;;17.60;95.60;;;;;;4993873;28;20501;-70
2021/07/09 03:21:59;;;;;;;1.15;0.80;;;17.70;95.50;;;;;;4994048;28;20080;-70
2021/07/09 03:24:25;;;;;;;3.05;0.65;;;18.00;95.10;;;;;;4994060;28;20031;-70
2021/07/09 03:26:51;;;;;;;2.30;0.73;;;18.50;94.10;;;;;;4994319;28;20018;-70
2021/07/09 03:29:17;;;;;;;2.10;0.60;;;19.00;92.80;;;;;;4993656;28;20088;-70
2021/07/09 03:31:42;;;;;;;1.33;0.50;;;19.40;91.70;;;;;;4994116;28;20030;-70
2021/07/09 03:34:10;;;;;;;2.03;0.90;;;19.70;91.00;;;;;;4994020;28;20529;-70
2021/07/09 03:36:38;;;;;;;0.70;0.70;;;19.90;90.30;;;;;;4993943;28;20030;-70
2021/07/09 03:39:04;;;;;;;0.90;0.65;;;20.10;89.30;;;;;;4993767;28;20098;-70
2021/07/09 03:41:30;;;;;;;1.42;0.70;;;20.20;88.40;;;;;;4993793;28;20380;-70
2021/07/09 03:43:56;;;;;;;1.85;0.70;;;20.40;87.60;;;;;;4993591;28;20022;-70
2021/07/09 03:46:22;;;;;;;1.55;0.60;;;20.70;86.60;;;;;;4993787;28;20023;-70
2021/07/09 03:48:48;;;;;;;2.05;0.60;;;21.00;85.40;;;;;;4993734;28;20026;-70
2021/07/09 03:51:14;;;;;;;0.70;0.60;;;21.30;84.10;;;;;;4993761;28;20068;-70
2021/07/09 03:53:40;;;;;;;0.93;0.60;;;21.50;82.90;;;;;;4993180;28;20092;-70
2021/07/09 03:56:06;;;;;;;0.88;0.65;;;21.80;81.90;;;;;;4976014;28;20034;-70
2021/07/09 03:58:32;;;;;;;1.13;0.60;;;22.00;80.40;;;;;;4993513;28;20027;-70
2021/07/09 04:00:58;;;;;;;0.60;0.60;;;22.30;79.50;;;;;;4993658;28;20125;-70
2021/07/09 04:03:24;;;;;;;0.50;0.43;;;22.60;78.00;;;;;;4993145;28;20537;-70
2021/07/09 04:05:50;;;;;;;1.15;0.52;;;22.70;77.10;;;;;;4992834;28;20026;-70
2021/07/09 04:08:15;;;;;;;0.77;0.60;;;23.00;76.20;;;;;;4993238;28;20477;-70
2021/07/09 04:10:42;;;;;;;1.02;0.60;;;23.10;75.20;;;;;;4993319;28;20038;-71
2021/07/09 04:13:08;;;;;;;0.47;0.47;;;23.40;74.50;;;;;;4993213;28;20105;-69
2021/07/09 04:15:34;;;;;;;0.95;0.50;;;23.70;73.40;;;;;;4993320;28;20062;-71
2021/07/09 04:18:00;;;;;;;0.73;0.47;;;23.80;72.90;;;;;;4993399;28;20018;-71
2021/07/09 04:20:26;;;;;;;1.85;0.68;;;24.10;72.50;;;;;;4992939;28;20034;-70
2021/07/09 04:22:57;;;;;;;0.95;0.70;;;24.30;71.50;;;;;;4993204;28;20029;-71
2021/07/09 04:25:23;;;;;;;0.52;0.50;;;24.40;70.80;;;;;;4993052;28;20022;-71
2021/07/09 04:27:49;;;;;;;3.33;0.80;;;24.70;69.60;;;;;;4992918;28;20023;-71
2021/07/09 04:30:16;;;;;;;2.20;0.60;;;24.90;68.10;;;;;;4992732;28;20037;-69
2021/07/09 04:32:42;;;;;;;0.98;0.40;;;24.90;68.30;;;;;;4993026;28;20030;-68
2021/07/09 04:35:09;;;;;;;2.70;0.60;;;25.10;67.70;;;;;;4992915;28;20105;-68
2021/07/09 04:37:35;;;;;;;2.13;0.60;;;25.40;67.10;;;;;;4992564;28;20030;-68
2021/07/09 04:40:02;;;;;;;0.88;0.40;;;25.50;66.20;;;;;;4992690;28;20463;-68
2021/07/09 04:42:27;;;;;;;1.00;0.40;;;25.80;65.80;;;;;;4992579;28;20069;-67
2021/07/09 04:44:53;;;;;;;0.93;0.40;;;25.90;64.50;;;;;;4992547;28;20431;-67
2021/07/09 04:47:19;;;;;;;2.25;0.50;;;26.00;63.90;;;;;;4992755;28;20027;-67
2021/07/09 04:49:45;;;;;;;0.68;0.50;;;26.10;63.40;;;;;;4992727;28;20425;-67
2021/07/09 04:52:10;;;;;;;0.90;0.45;;;26.30;63.40;;;;;;4992372;28;20037;-68
2021/07/09 04:54:36;;;;;;;0.50;0.50;;;26.50;62.10;;;;;;4992665;28;20122;-67
2021/07/09 04:57:02;;;;;;;1.52;0.47;;;26.70;61.90;;;;;;4992699;28;20041;-67
2021/07/09 04:59:28;;;;;;;0.40;0.40;;;26.90;61.70;;;;;;4992475;28;20509;-67
2021/07/09 05:01:53;;;;;;;2.70;0.50;;;27.00;60.90;;;;;;4992837;28;20030;-67
2021/07/09 05:04:19;;;;;;;7.22;0.47;;;27.10;60.60;;;;;;4992521;28;20023;-67
2021/07/09 05:06:45;;;;;;;1.17;0.50;;;27.20;60.20;;;;;;4992398;28;20430;-69
2021/07/09 05:09:10;;;;;;;0.57;0.45;;;27.30;59.60;;;;;;4992513;28;20022;-67
2021/07/09 05:11:38;;;;;;;1.58;0.50;;;27.40;58.80;;;;;;4992175;28;20518;-68
2021/07/09 05:14:05;;;;;;;0.85;0.45;;;27.40;58.60;;;;;;4992225;28;20100;-67
2021/07/09 05:16:33;;;;;;;1.23;0.30;;;27.50;58.30;;;;;;4992407;28;20037;-67
2021/07/09 05:19:00;;;;;;;0.93;0.50;;;27.60;57.70;;;;;;4995949;28;20038;-67
2021/07/09 05:21:26;;;;;;;1.75;0.40;;;27.70;57.90;;;;;;4996026;28;20029;-67
2021/07/09 05:23:52;;;;;;;3.13;0.60;;;27.90;57.70;;;;;;4996171;28;20033;-67
2021/07/09 05:26:19;;;;;;;0.80;0.38;;;28.10;57.40;;;;;;4996499;28;20018;-67
2021/07/09 05:28:44;;;;;;;3.00;0.40;;;28.20;56.80;;;;;;4995965;28;20030;-67
2021/07/09 05:31:11;;;;;;;1.27;0.40;;;28.20;56.90;;;;;;4996126;28;20486;-68
2021/07/09 05:33:36;;;;;;;0.98;0.30;;;28.30;56.40;;;;;;4995862;28;20378;-69
2021/07/09 05:36:02;;;;;;;0.63;0.40;;;28.40;56.50;;;;;;4995699;28;20121;-68
2021/07/09 05:38:28;;;;;;;0.93;0.32;;;28.50;55.60;;;;;;4996227;28;20022;-68
2021/07/09 05:40:54;;;;;;;1.00;0.40;;;28.60;55.30;;;;;;4996077;28;20030;-68
2021/07/09 05:43:20;;;;;;;0.65;0.30;;;28.60;54.80;;;;;;4996183;28;20022;-68
2021/07/09 05:45:46;;;;;;;2.38;0.47;;;28.80;54.40;;;;;;4996215;28;20045;-69
2021/07/09 05:48:13;;;;;;;0.47;0.30;;;28.90;53.70;;;;;;4996071;28;20505;-69
2021/07/09 05:50:39;;;;;;;0.32;0.30;;;29.00;53.40;;;;;;4995845;28;20109;-69
2021/07/09 05:53:04;;;;;;;1.20;0.45;;;29.00;53.30;;;;;;4995410;28;20053;-69
2021/07/09 05:55:30;;;;;;;3.58;0.40;;;29.00;53.40;;;;;;4995844;28;20030;-69
2021/07/09 05:57:56;;;;;;;0.45;0.20;;;29.20;53.10;;;;;;4995060;28;20033;-69
2021/07/09 06:00:21;;;;;;;0.80;0.30;;;29.30;52.80;;;;;;4995453;28;20026;-69
2021/07/09 06:02:47;;;;;;;3.03;0.73;;;29.40;52.80;;;;;;4995825;28;20028;-69
2021/07/09 06:05:13;;;;;;;0.68;0.38;;;29.40;52.10;;;;;;4995388;28;20505;-69
2021/07/09 06:07:39;;;;;;;0.55;0.20;;;29.60;51.50;;;;;;4995365;28;20018;-68
2021/07/09 06:10:05;;;;;;;1.65;0.30;;;29.60;51.50;;;;;;4995227;28;20117;-68
2021/07/09 06:12:31;;;;;;;4.97;0.50;;;29.60;51.50;;;;;;4995471;28;20066;-68
2021/07/09 06:14:58;;;;;;;2.15;0.43;;;29.70;51.20;;;;;;4995342;28;20026;-70
2021/07/09 06:17:23;;;;;;;1.95;0.30;;;29.70;50.70;;;;;;4995167;28;20046;-68
2021/07/09 06:19:49;;;;;;;5.18;0.40;;;29.70;50.60;;;;;;4995134;28;20058;-69
2021/07/09 06:22:15;;;;;;;2.58;0.80;;;29.60;50.80;;;;;;4995112;28;20026;-69
2021/07/09 06:24:40;;;;;;;0.38;0.30;;;29.50;50.70;;;;;;4994738;28;20027;-69
2021/07/09 06:27:07;;;;;;;1.48;0.22;;;29.60;51.00;;;;;;4995200;28;20093;-66
2021/07/09 06:29:33;;;;;;;0.20;0.20;;;29.70;51.50;;;;;;4993764;28;20022;-66
2021/07/09 06:31:59;;;;;;;0.73;0.30;;;29.80;49.80;;;;;;4995156;28;20038;-66
2021/07/09 06:34:25;;;;;;;0.30;0.13;;;29.80;50.30;;;;;;4994957;28;20029;-67
2021/07/09 06:36:51;;;;;;;7.05;0.60;;;29.70;50.60;;;;;;4994856;28;20482;-66
2021/07/09 06:39:17;;;;;;;0.63;0.30;;;29.90;51.00;;;;;;4994797;28;20030;-66
2021/07/09 06:41:42;;;;;;;1.75;0.30;;;30.00;50.20;;;;;;4994547;28;20117;-66
2021/07/09 06:44:08;;;;;;;0.60;0.30;;;29.90;50.30;;;;;;4994785;28;20037;-67
2021/07/09 06:46:34;;;;;;;1.65;0.20;;;30.00;49.90;;;;;;4977375;28;20026;-66
2021/07/09 06:49:00;;;;;;;0.98;0.40;;;29.90;49.00;;;;;;4994918;28;20026;-66
2021/07/09 06:51:26;;;;;;;9.90;0.70;;;29.70;49.30;;;;;;4994612;28;20398;-68
2021/07/09 06:53:51;;;;;;;0.40;0.30;;;29.60;49.50;;;;;;4994402;28;20045;-67
2021/07/09 06:56:17;;;;;;;0.20;0.20;;;29.50;49.50;;;;;;4994870;28;20023;-66
2021/07/09 06:58:43;;;;;;;1.27;0.47;;;29.50;49.80;;;;;;4994685;28;20027;-67
2021/07/09 07:01:10;;;;;;;0.52;0.30;;;29.60;50.10;;;;;;4994557;28;20374;-67
2021/07/09 07:03:35;;;;;;;0.82;0.40;;;29.60;49.80;;;;;;4994265;28;20049;-67
2021/07/09 07:06:01;;;;;;;0.50;0.20;;;29.60;50.10;;;;;;4994453;28;20031;-66
2021/07/09 07:08:27;;;;;;;0.50;0.20;;;29.60;50.40;;;;;;4993838;28;20498;-67
2021/07/09 07:10:55;;;;;;;1.13;0.20;;;29.60;50.10;;;;;;4994322;28;20065;-69
2021/07/09 07:13:23;;;;;;;0.52;0.22;;;29.50;50.20;;;;;;4994442;28;20030;-70
2021/07/09 07:15:50;;;;;;;5.10;0.40;;;29.40;50.90;;;;;;4994033;28;20097;-69
2021/07/09 07:18:15;;;;;;;0.65;0.30;;;29.40;50.60;;;;;;4994044;28;20027;-70
2021/07/09 07:20:44;;;;;;;1.00;0.30;;;29.30;50.50;;;;;;4993852;28;20037;-70
2021/07/09 07:23:12;;;;;;;0.40;0.20;;;29.30;50.90;;;;;;4994012;28;20026;-70
2021/07/09 07:25:38;;;;;;;0.52;0.10;;;29.10;50.70;;;;;;4993681;28;20046;-70
2021/07/09 07:28:05;;;;;;;0.52;0.20;;;29.00;49.90;;;;;;4993585;28;20093;-70
2021/07/09 07:30:31;;;;;;;0.35;0.17;;;29.10;50.30;;;;;;4993591;28;20034;-70
2021/07/09 07:32:57;;;;;;;0.52;0.20;;;29.00;49.90;;;;;;4993687;28;20077;-70
2021/07/09 07:35:23;;;;;;;0.80;0.30;;;28.90;49.50;;;;;;4993935;28;20030;-70
2021/07/09 07:37:49;;;;;;;0.75;0.20;;;29.00;49.50;;;;;;4993466;28;20018;-70
2021/07/09 07:40:15;;;;;;;2.50;0.20;;;28.90;49.30;;;;;;4992880;28;20046;-70
2021/07/09 07:42:41;;;;;;;1.08;0.20;;;28.70;49.30;;;;;;4993118;28;20040;-70
2021/07/09 07:45:08;;;;;;;2.95;0.47;;;28.70;49.60;;;;;;4993046;28;20470;-70
2021/07/09 07:47:34;;;;;;;0.40;0.30;;;28.70;49.80;;;;;;4990652;28;20105;-70
2021/07/09 07:49:59;;;;;;;0.35;0.10;;;28.70;50.00;;;;;;4993624;28;20193;-74
2021/07/09 07:52:25;;;;;;;1.17;0.25;;;28.70;49.40;;;;;;4975814;28;20644;-74
2021/07/09 07:54:51;;;;;;;0.80;0.28;;;28.60;48.60;;;;;;4993112;28;20109;-74
2021/07/09 07:57:17;;;;;;;0.98;0.30;;;28.60;47.50;;;;;;4993470;28;20112;-72
2021/07/09 07:59:45;;;;;;;1.35;0.20;;;28.50;48.80;;;;;;4992748;28;20137;-71
2021/07/09 08:02:10;;;;;;;0.13;0.13;;;28.40;49.90;;;;;;4993270;28;20109;-72
2021/07/09 08:04:36;;;;;;;14.65;2.65;;;28.30;50.20;;;;;;4993020;28;20109;-72
2021/07/09 08:07:03;;;;;;;0.30;0.20;;;28.20;50.90;;;;;;4993209;28;20073;-72
2021/07/09 08:09:29;;;;;;;2.38;0.40;;;28.20;50.80;;;;;;4993223;28;20034;-71
2021/07/09 08:11:56;;;;;;;0.30;0.20;;;28.20;51.20;;;;;;4993060;28;20040;-71
2021/07/09 08:14:22;;;;;;;1.90;0.28;;;28.30;51.00;;;;;;4993165;28;20516;-71
2021/07/09 08:16:51;;;;;;;1.48;0.20;;;28.20;50.60;;;;;;4993120;28;20034;-72
2021/07/09 08:19:21;;;;;;;0.52;0.30;;;28.30;50.00;;;;;;4993068;28;20014;-71
2021/07/09 08:21:47;;;;;;;0.60;0.20;;;28.20;49.20;;;;;;4992868;28;20545;-71
2021/07/09 08:24:14;;;;;;;0.43;0.20;;;28.10;49.30;;;;;;4992963;28;20034;-72
2021/07/09 08:26:40;;;;;;;0.50;0.20;;;28.10;49.40;;;;;;4992964;28;20022;-71
2021/07/09 08:29:06;;;;;;;2.15;0.30;;;28.00;49.30;;;;;;4993093;28;20027;-72
2021/07/09 08:31:32;;;;;;;0.63;0.28;;;28.10;50.10;;;;;;4992942;28;20042;-72
2021/07/09 08:33:57;;;;;;;1.17;0.28;;;28.00;49.70;;;;;;4992961;28;20065;-72
2021/07/09 08:36:26;;;;;;;0.47;0.10;;;28.00;50.00;;;;;;4992948;28;20022;-71
2021/07/09 08:38:53;;;;;;;0.50;0.25;;;28.00;49.70;;;;;;4992780;28;20430;-72
2021/07/09 08:41:19;;;;;;;0.60;0.20;;;28.10;49.20;;;;;;4993044;28;20053;-71
2021/07/09 08:43:45;;;;;;;0.73;0.10;;;28.00;49.10;;;;;;4992759;28;20069;-71
2021/07/09 08:46:11;;;;;;;0.50;0.20;;;27.90;49.20;;;;;;4992477;28;20034;-74
2021/07/09 08:48:37;;;;;;;0.40;0.20;;;27.90;49.70;;;;;;4992528;28;20057;-71
2021/07/09 08:51:05;;;;;;;0.47;0.20;;;27.80;50.00;;;;;;4992531;28;20046;-72
2021/07/09 08:53:30;;;;;;;0.73;0.10;;;27.70;49.10;;;;;;4991840;28;20498;-72
2021/07/09 08:55:57;;;;;;;0.20;0.15;;;27.70;49.30;;;;;;4992742;28;20037;-72
2021/07/09 08:58:22;;;;;;;0.80;0.20;;;27.60;50.00;;;;;;4992802;28;20378;-74
2021/07/09 09:00:48;;;;;;;0.60;0.20;;;27.60;49.30;;;;;;4992157;28;20509;-74
2021/07/09 09:03:20;;;;;;;1.95;0.15;;;27.60;49.00;;;;;;4992697;28;20105;-74
2021/07/09 09:05:47;;;;;;;0.70;0.20;;;27.60;49.60;;;;;;4992213;28;20625;-74
2021/07/09 09:08:15;;;;;;;14.80;1.50;;;27.60;50.10;;;;;;4992431;28;20031;-74
2021/07/09 09:10:56;;;;;;;2.50;0.30;;;27.60;50.40;;;;;;4992213;28;20501;-73
2021/07/09 09:13:32;;;;;;;1.20;0.40;;;27.60;49.60;;;;;;4992587;28;20038;-74
2021/07/09 09:16:02;;;;;;;0.70;0.30;;;27.60;50.40;;;;;;4992381;28;20077;-73
2021/07/09 09:18:32;;;;;;;1.65;0.30;;;27.60;49.90;;;;;;4993741;28;20022;-74
2021/07/09 09:20:58;;;;;;;0.55;0.20;;;27.60;49.70;;;;;;4992244;28;20101;-73
2021/07/09 09:23:25;;;;;;;0.95;0.20;;;27.50;49.80;;;;;;4992432;28;20450;-74
2021/07/09 09:25:51;;;;;;;0.85;0.20;;;27.40;49.40;;;;;;4992202;28;20023;-74
2021/07/09 09:28:17;;;;;;;3.50;0.50;;;27.40;50.50;;;;;;4992511;28;20026;-75
2021/07/09 09:30:45;;;;;;;2.35;0.30;;;27.50;50.80;;;;;;4992253;28;20545;-75
2021/07/09 09:33:13;;;;;;;0.70;0.20;;;27.60;51.10;;;;;;4991790;28;20018;-74
2021/07/09 09:35:44;;;;;;;0.43;0.20;;;27.70;49.70;;;;;;4991532;28;20481;-74
2021/07/09 09:38:13;;;;;;;2.05;0.20;;;27.70;51.10;;;;;;4991920;28;20018;-74
2021/07/09 09:40:43;;;;;;;2.90;0.30;;;27.80;50.20;;;;;;4991799;28;20022;-75
2021/07/09 09:43:11;;;;;;;2.22;0.30;;;27.90;50.20;;;;;;4991775;28;20038;-74
2021/07/09 09:45:38;;;;;;;0.30;0.20;;;27.90;50.70;;;;;;4991996;28;20022;-74
2021/07/09 09:48:08;;;;;;;0.55;0.20;;;28.00;51.20;;;;;;4991864;28;20022;-73
2021/07/09 09:50:41;;;;;;;2.42;0.50;;;28.10;51.20;;;;;;4991994;28;20363;-74
2021/07/09 09:53:07;;;;;;;0.95;0.20;;;28.10;50.90;;;;;;4991854;28;20050;-74
2021/07/09 09:55:33;;;;;;;0.73;0.20;;;28.20;50.30;;;;;;4974159;28;20105;-74
2021/07/09 09:58:10;;;;;;;0.35;0.17;;;28.20;50.20;;;;;;4991976;28;20031;-73
2021/07/09 10:00:36;;;;;;;2.75;0.52;;;28.20;50.10;;;;;;4991889;28;20096;-70
2021/07/09 10:03:04;;;;;;;0.75;0.28;;;28.20;50.50;;;;;;4992102;28;20557;-71
2021/07/09 10:05:33;;;;;;;0.82;0.20;;;28.20;50.30;;;;;;4994588;28;20157;-69
2021/07/09 10:08:00;;;;;;;2.22;0.32;;;28.20;50.40;;;;;;4995533;28;20027;-76
2021/07/09 10:10:28;;;;;;;2.47;0.30;;;28.20;50.40;;;;;;4995378;28;20038;-75
2021/07/09 10:12:55;;;;;;;0.75;0.20;;;28.10;50.90;;;;;;4995484;28;20050;-74
2021/07/09 10:15:21;;;;;;;0.35;0.25;;;28.10;50.70;;;;;;4995266;28;20026;-74
2021/07/09 10:17:51;;;;;;;1.05;0.20;;;28.10;50.10;;;;;;4995404;28;20034;-74
2021/07/09 10:20:18;;;;;;;0.52;0.20;;;28.10;50.10;;;;;;4995223;28;20037;-74
2021/07/09 10:22:47;;;;;;;0.40;0.20;;;28.10;49.80;;;;;;4995243;28;20033;-74
2021/07/09 10:25:14;;;;;;;0.93;0.20;;;28.10;50.20;;;;;;4995373;28;20437;-74
2021/07/09 10:27:42;;;;;;;1.05;0.20;;;28.10;51.10;;;;;;4994948;28;20023;-74
2021/07/09 10:30:09;;;;;;;1.58;0.30;;;28.10;49.70;;;;;;4994821;28;20030;-74
2021/07/09 10:32:40;;;;;;;0.98;0.22;;;28.10;48.70;;;;;;4994799;28;20022;-74
2021/07/09 10:35:10;;;;;;;0.82;0.25;;;28.10;48.20;;;;;;4995186;28;20030;-74
2021/07/09 10:37:37;;;;;;;0.68;0.30;;;28.10;48.50;;;;;;4994927;28;20044;-74
2021/07/09 10:40:19;;;;;;;1.27;0.50;;;28.10;48.20;;;;;;4994829;28;20022;-74
2021/07/09 10:42:51;;;;;;;0.32;0.20;;;28.00;48.50;;;;;;4994938;28;20022;-74
2021/07/09 10:45:20;;;;;;;1.65;0.20;;;27.90;49.40;;;;;;4994891;28;20105;-74
2021/07/09 10:48:06;;;;;;;0.70;0.25;;;27.90;49.00;;;;;;4994543;28;20548;-74
2021/07/09 10:50:51;;;;;;;0.50;0.20;;;28.00;48.50;;;;;;4980767;28;20290;-74
2021/07/09 10:53:20;;;;;;;0.73;0.30;;;28.00;48.90;;;;;;4994434;28;20050;-74
2021/07/09 10:56:09;;;;;;;1.20;0.38;;;28.00;50.30;;;;;;4994260;28;20402;-73
2021/07/09 10:58:45;;;;;;;0.80;0.22;;;28.00;49.80;;;;;;4994351;28;20054;-73
2021/07/09 11:01:13;;;;;;;0.63;0.20;;;27.90;49.60;;;;;;4994630;28;20343;-73
2021/07/09 11:03:45;;;;;;;0.32;0.30;;;27.90;49.40;;;;;;4994349;28;20028;-73
2021/07/09 11:06:20;;;;;;;2.40;0.30;;;28.00;49.00;;;;;;4994339;28;20018;-73
2021/07/09 11:08:57;;;;;;;7.18;0.40;;;28.00;48.80;;;;;;4994080;28;20036;-73
2021/07/09 11:11:28;;;;;;;0.35;0.10;;;27.90;47.90;;;;;;4976639;28;20040;-73
2021/07/09 11:13:59;;;;;;;0.70;0.20;;;27.90;48.70;;;;;;4994094;28;20069;-74
2021/07/09 11:16:27;;;;;;;1.38;0.30;;;27.90;49.60;;;;;;4993719;28;20117;-74
2021/07/09 11:19:02;;;;;;;0.40;0.20;;;27.90;49.40;;;;;;4994061;28;20044;-74
2021/07/09 11:21:32;;;;;;;1.00;0.30;;;27.90;49.90;;;;;;4993983;28;20063;-74
2021/07/09 11:24:03;;;;;;;0.80;0.22;;;27.90;49.90;;;;;;4993951;28;20054;-74
2021/07/09 11:26:31;;;;;;;1.05;0.52;;;27.90;49.60;;;;;;4993980;28;20037;-74
2021/07/09 11:28:57;;;;;;;3.75;0.30;;;27.90;49.80;;;;;;4993958;28;20033;-74
2021/07/09 11:31:41;;;;;;;1.40;0.20;;;27.90;49.60;;;;;;4993817;28;20438;-74
2021/07/09 11:34:11;;;;;;;2.92;0.40;;;28.00;49.60;;;;;;4993771;28;20026;-74
2021/07/09 11:36:49;;;;;;;0.90;0.45;;;28.00;49.70;;;;;;4994155;28;20042;-74
2021/07/09 11:39:22;;;;;;;1.25;0.40;;;28.00;49.40;;;;;;4993681;28;20082;-74
2021/07/09 11:41:55;;;;;;;0.52;0.25;;;28.00;49.40;;;;;;4993736;28;20031;-74
2021/07/09 11:44:42;;;;;;;1.30;0.30;;;27.90;48.90;;;;;;4993611;28;20022;-74
2021/07/09 11:47:15;;;;;;;0.20;0.20;;;27.90;49.10;;;;;;4992759;28;20042;-74
2021/07/09 11:49:46;;;;;;;1.00;0.20;;;27.90;49.70;;;;;;4993213;28;20069;-74
2021/07/09 11:52:13;;;;;;;1.02;0.40;;;27.90;49.90;;;;;;4993245;28;20058;-74
2021/07/09 11:54:41;;;;;;;1.65;0.45;;;27.90;50.30;;;;;;4993015;28;20490;-74
2021/07/09 11:57:13;;;;;;;1.00;0.22;;;27.80;49.80;;;;;;4993566;28;20034;-74
2021/07/09 11:59:40;;;;;;;0.85;0.35;;;27.80;49.40;;;;;;4992964;28;20109;-74
2021/07/09 12:02:23;;;;;;;1.42;0.35;;;27.90;50.00;;;;;;4993216;28;20030;-74
2021/07/09 12:05:01;;;;;;;1.20;0.40;;;27.90;50.00;;;;;;4992861;28;20536;-74
2021/07/09 12:07:37;;;;;;;0.85;0.30;;;27.90;49.70;;;;;;4993153;28;20460;-74
2021/07/09 12:10:16;;;;;;;1.58;0.43;;;27.90;49.50;;;;;;4993169;28;20034;-74
2021/07/09 12:12:44;;;;;;;3.63;0.30;;;28.00;49.80;;;;;;4993008;28;20023;-74
2021/07/09 12:15:23;;;;;;;3.85;0.68;;;28.10;49.00;;;;;;4992888;28;20022;-74
2021/07/09 12:17:58;;;;;;;0.60;0.20;;;28.20;49.00;;;;;;4993014;28;20452;-74
2021/07/09 12:20:25;;;;;;;2.75;0.50;;;28.20;49.50;;;;;;4992891;28;20030;-74
2021/07/09 12:22:55;;;;;;;0.40;0.20;;;28.20;49.30;;;;;;4993337;28;20077;-74
2021/07/09 12:25:25;;;;;;;0.28;0.20;;;28.20;49.60;;;;;;4993079;28;20088;-74
2021/07/09 12:27:57;;;;;;;1.05;0.30;;;28.10;49.30;;;;;;4991951;28;20098;-74
2021/07/09 12:30:26;;;;;;;0.30;0.20;;;28.00;49.10;;;;;;4992686;28;20109;-74
2021/07/09 12:32:55;;;;;;;1.20;0.20;;;27.90;49.00;;;;;;4992694;28;20466;-74
2021/07/09 12:35:22;;;;;;;2.75;0.45;;;27.90;49.00;;;;;;4992777;28;20379;-74
2021/07/09 12:38:05;;;;;;;2.95;1.00;;;27.90;50.00;;;;;;4992877;28;20164;-74
2021/07/09 12:40:37;;;;;;;0.28;0.20;;;27.90;50.20;;;;;;4992889;28;20022;-74
2021/07/09 12:43:13;;;;;;;1.40;0.30;;;28.00;49.40;;;;;;4992609;28;20054;-74
2021/07/09 12:45:40;;;;;;;0.22;0.10;;;28.00;49.20;;;;;;4992580;28;20110;-74
2021/07/09 12:48:06;;;;;;;0.65;0.43;;;28.00;50.10;;;;;;4992715;28;20058;-74
2021/07/09 12:50:38;;;;;;;0.45;0.30;;;28.10;49.60;;;;;;4992392;28;20026;-74
2021/07/09 12:53:35;;;;;;;1.38;0.50;;;28.10;49.40;;;;;;4992342;28;20530;-74
2021/07/09 12:56:01;;;;;;;0.73;0.20;;;28.20;49.80;;;;;;4991407;28;20109;-74
2021/07/09 12:58:29;;;;;;;3.00;0.28;;;28.30;49.70;;;;;;4992532;28;20057;-74
2021/07/09 13:01:05;;;;;;;2.78;0.28;;;28.30;48.80;;;;;;4992145;28;20054;-74
2021/07/09 13:03:33;;;;;;;2.08;0.13;;;28.40;48.10;;;;;;4992496;28;20117;-74
2021/07/09 13:06:05;;;;;;;0.68;0.25;;;28.40;48.50;;;;;;4992207;28;20026;-74
2021/07/09 13:08:32;;;;;;;0.30;0.20;;;28.40;48.70;;;;;;4992443;28;20482;-74
2021/07/09 13:11:19;;;;;;;0.55;0.30;;;28.40;48.70;;;;;;4992127;28;20044;-74
2021/07/09 13:13:50;;;;;;;0.45;0.20;;;28.30;47.10;;;;;;4992324;28;20019;-74
2021/07/09 13:16:18;;;;;;;1.05;0.40;;;28.30;47.30;;;;;;4992360;28;20214;-74
2021/07/09 13:19:00;;;;;;;0.45;0.13;;;28.20;47.50;;;;;;4992290;28;20019;-74
2021/07/09 13:21:28;;;;;;;3.33;0.50;;;28.30;47.60;;;;;;4992303;28;20041;-74
2021/07/09 13:24:06;;;;;;;1.65;0.30;;;28.20;47.80;;;;;;4992278;28;20482;-74
2021/07/09 13:26:40;;;;;;;2.92;0.30;;;28.20;47.60;;;;;;4992176;28;20063;-74
2021/07/09 13:29:25;;;;;;;1.38;0.22;;;28.10;47.60;;;;;;4992151;28;20034;-74